sensor_id;sensor_type;location;lat;lon;timestamp;P1;durP1;ratioP1;P2;durP2;ratioP2
47812;SDS011;34221;45.296;9.516;2023-03-14T00:00:12;19.30;;;13.68;;
47812;SDS011;34221;45.296;9.516;2023-03-14T00:00:29;21.20;;;13.35;;
47812;SDS011;34221;45.296;9.516;2023-03-14T00:00:43;22.20;;;13.20;;
47812;SDS011;34221;45.296;9.516;2023-03-14T00:00:59;20.83;;;13.57;;
47812;SDS011;34221;45.296;9.516;2023-03-14T00:01:15;19.65;;;13.07;;
47812;SDS011;34221;45.296;9.516;2023-03-14T00:01:31;20.02;;;13.15;;
47812;SDS011;34221;45.296;9.516;2023-03-14T00:01:46;21.15;;;13.63;;
47812;SDS011;34221;45.296;9.516;2023-03-14T00:02:02;27.20;;;14.63;;
47812;SDS011;34221;45.296;9.516;2023-03-14T00:02:17;25.03;;;14.23;;
47812;SDS011;34221;45.296;9.516;2023-03-14T00:02:32;21.08;;;13.82;;
47812;SDS011;34221;45.296;9.516;2023-03-14T00:02:51;21.42;;;14.63;;
47812;SDS011;34221;45.296;9.516;2023-03-14T00:03:09;19.38;;;13.88;;
47812;SDS011;34221;45.296;9.516;2023-03-14T00:03:24;19.42;;;13.18;;
47812;SDS011;34221;45.296;9.516;2023-03-14T00:03:39;22.02;;;13.95;;
47812;SDS011;34221;45.296;9.516;2023-03-14T00:03:54;26.17;;;14.68;;
47812;SDS011;34221;45.296;9.516;2023-03-14T00:04:09;26.05;;;14.38;;
47812;SDS011;34221;45.296;9.516;2023-03-14T00:04:23;20.42;;;13.15;;
47812;SDS011;34221;45.296;9.516;2023-03-14T00:04:38;19.38;;;13.23;;
47812;SDS011;34221;45.296;9.516;2023-03-14T00:04:54;20.30;;;13.40;;
47812;SDS011;34221;45.296;9.516;2023-03-14T00:05:10;20.02;;;13.02;;
47812;SDS011;34221;45.296;9.516;2023-03-14T00:05:25;20.02;;;13.70;;
47812;SDS011;34221;45.296;9.516;2023-03-14T00:05:41;20.75;;;14.43;;
47812;SDS011;34221;45.296;9.516;2023-03-14T00:05:55;22.02;;;13.68;;
47812;SDS011;34221;45.296;9.516;2023-03-14T00:06:10;22.50;;;13.32;;
47812;SDS011;34221;45.296;9.516;2023-03-14T00:06:27;21.00;;;13.35;;
47812;SDS011;34221;45.296;9.516;2023-03-14T00:06:42;17.50;;;12.93;;
47812;SDS011;34221;45.296;9.516;2023-03-14T00:06:57;19.08;;;13.43;;
47812;SDS011;34221;45.296;9.516;2023-03-14T00:07:12;20.45;;;13.57;;
47812;SDS011;34221;45.296;9.516;2023-03-14T00:07:27;19.02;;;13.52;;
47812;SDS011;34221;45.296;9.516;2023-03-14T00:07:46;18.77;;;13.05;;
47812;SDS011;34221;45.296;9.516;2023-03-14T00:08:00;18.50;;;12.63;;
47812;SDS011;34221;45.296;9.516;2023-03-14T00:08:15;19.20;;;13.35;;
47812;SDS011;34221;45.296;9.516;2023-03-14T00:08:30;19.73;;;13.68;;
47812;SDS011;34221;45.296;9.516;2023-03-14T00:08:46;18.55;;;13.32;;
47812;SDS011;34221;45.296;9.516;2023-03-14T00:09:00;19.15;;;13.73;;
47812;SDS011;34221;45.296;9.516;2023-03-14T00:09:16;21.48;;;14.02;;
47812;SDS011;34221;45.296;9.516;2023-03-14T00:09:31;20.27;;;13.60;;
47812;SDS011;34221;45.296;9.516;2023-03-14T00:09:46;19.83;;;13.68;;
47812;SDS011;34221;45.296;9.516;2023-03-14T00:10:02;26.00;;;14.57;;
47812;SDS011;34221;45.296;9.516;2023-03-14T00:10:21;27.38;;;15.15;;
47812;SDS011;34221;45.296;9.516;2023-03-14T00:10:36;23.52;;;14.90;;
47812;SDS011;34221;45.296;9.516;2023-03-14T00:10:51;25.25;;;14.55;;
47812;SDS011;34221;45.296;9.516;2023-03-14T00:11:11;24.45;;;13.73;;
47812;SDS011;34221;45.296;9.516;2023-03-14T00:11:29;19.98;;;13.32;;
47812;SDS011;34221;45.296;9.516;2023-03-14T00:11:44;19.83;;;13.57;;
47812;SDS011;34221;45.296;9.516;2023-03-14T00:11:58;24.33;;;13.93;;
47812;SDS011;34221;45.296;9.516;2023-03-14T00:12:13;22.67;;;13.77;;
47812;SDS011;34221;45.296;9.516;2023-03-14T00:12:28;18.38;;;13.55;;
47812;SDS011;34221;45.296;9.516;2023-03-14T00:12:43;20.63;;;13.68;;
47812;SDS011;34221;45.296;9.516;2023-03-14T00:12:58;24.23;;;14.18;;
47812;SDS011;34221;45.296;9.516;2023-03-14T00:13:13;23.67;;;14.52;;
47812;SDS011;34221;45.296;9.516;2023-03-14T00:13:28;22.20;;;14.30;;
47812;SDS011;34221;45.296;9.516;2023-03-14T00:13:43;20.02;;;13.45;;
47812;SDS011;34221;45.296;9.516;2023-03-14T00:14:02;19.42;;;13.30;;
47812;SDS011;34221;45.296;9.516;2023-03-14T00:14:17;21.67;;;14.25;;
47812;SDS011;34221;45.296;9.516;2023-03-14T00:14:32;23.17;;;14.48;;
47812;SDS011;34221;45.296;9.516;2023-03-14T00:14:47;22.10;;;14.15;;
47812;SDS011;34221;45.296;9.516;2023-03-14T00:15:02;20.70;;;14.02;;
47812;SDS011;34221;45.296;9.516;2023-03-14T00:15:18;21.58;;;14.25;;
47812;SDS011;34221;45.296;9.516;2023-03-14T00:15:34;19.77;;;13.93;;
47812;SDS011;34221;45.296;9.516;2023-03-14T00:15:49;18.48;;;13.60;;
47812;SDS011;34221;45.296;9.516;2023-03-14T00:16:05;20.92;;;13.95;;
47812;SDS011;34221;45.296;9.516;2023-03-14T00:16:22;22.58;;;14.23;;
47812;SDS011;34221;45.296;9.516;2023-03-14T00:16:37;22.05;;;13.98;;
47812;SDS011;34221;45.296;9.516;2023-03-14T00:16:52;20.52;;;13.50;;
47812;SDS011;34221;45.296;9.516;2023-03-14T00:17:07;18.70;;;12.95;;
47812;SDS011;34221;45.296;9.516;2023-03-14T00:17:22;18.20;;;13.00;;
47812;SDS011;34221;45.296;9.516;2023-03-14T00:17:37;21.25;;;13.75;;
47812;SDS011;34221;45.296;9.516;2023-03-14T00:17:53;23.63;;;14.00;;
47812;SDS011;34221;45.296;9.516;2023-03-14T00:18:07;23.27;;;14.05;;
47812;SDS011;34221;45.296;9.516;2023-03-14T00:18:22;22.02;;;14.25;;
47812;SDS011;34221;45.296;9.516;2023-03-14T00:18:38;19.35;;;13.55;;
47812;SDS011;34221;45.296;9.516;2023-03-14T00:18:54;20.85;;;13.07;;
47812;SDS011;34221;45.296;9.516;2023-03-14T00:19:09;22.17;;;13.48;;
47812;SDS011;34221;45.296;9.516;2023-03-14T00:19:24;22.70;;;13.60;;
47812;SDS011;34221;45.296;9.516;2023-03-14T00:19:38;22.55;;;13.40;;
47812;SDS011;34221;45.296;9.516;2023-03-14T00:19:54;20.25;;;13.35;;
47812;SDS011;34221;45.296;9.516;2023-03-14T00:20:09;21.08;;;14.07;;
47812;SDS011;34221;45.296;9.516;2023-03-14T00:20:25;24.48;;;14.32;;
47812;SDS011;34221;45.296;9.516;2023-03-14T00:20:40;24.77;;;13.38;;
47812;SDS011;34221;45.296;9.516;2023-03-14T00:20:57;21.17;;;12.85;;
47812;SDS011;34221;45.296;9.516;2023-03-14T00:21:13;20.45;;;13.13;;
47812;SDS011;34221;45.296;9.516;2023-03-14T00:21:49;17.88;;;12.55;;
47812;SDS011;34221;45.296;9.516;2023-03-14T00:22:04;17.48;;;12.45;;
47812;SDS011;34221;45.296;9.516;2023-03-14T00:22:19;18.65;;;12.82;;
47812;SDS011;34221;45.296;9.516;2023-03-14T00:22:35;19.48;;;12.90;;
47812;SDS011;34221;45.296;9.516;2023-03-14T00:22:53;17.40;;;12.43;;
47812;SDS011;34221;45.296;9.516;2023-03-14T00:23:08;17.58;;;12.43;;
47812;SDS011;34221;45.296;9.516;2023-03-14T00:23:23;20.25;;;13.00;;
47812;SDS011;34221;45.296;9.516;2023-03-14T00:23:39;19.98;;;13.27;;
47812;SDS011;34221;45.296;9.516;2023-03-14T00:23:55;22.00;;;13.60;;
47812;SDS011;34221;45.296;9.516;2023-03-14T00:24:10;23.95;;;13.80;;
47812;SDS011;34221;45.296;9.516;2023-03-14T00:24:25;22.02;;;13.93;;
47812;SDS011;34221;45.296;9.516;2023-03-14T00:24:40;19.92;;;13.30;;
47812;SDS011;34221;45.296;9.516;2023-03-14T00:24:55;19.30;;;12.57;;
47812;SDS011;34221;45.296;9.516;2023-03-14T00:25:10;18.38;;;12.45;;
47812;SDS011;34221;45.296;9.516;2023-03-14T00:25:26;18.90;;;12.50;;
47812;SDS011;34221;45.296;9.516;2023-03-14T00:25:41;20.10;;;12.95;;
47812;SDS011;34221;45.296;9.516;2023-03-14T00:26:02;19.20;;;13.15;;
47812;SDS011;34221;45.296;9.516;2023-03-14T00:26:21;17.42;;;12.23;;
47812;SDS011;34221;45.296;9.516;2023-03-14T00:26:36;18.40;;;12.93;;
47812;SDS011;34221;45.296;9.516;2023-03-14T00:26:51;17.85;;;12.82;;
47812;SDS011;34221;45.296;9.516;2023-03-14T00:27:06;17.70;;;12.38;;
47812;SDS011;34221;45.296;9.516;2023-03-14T00:27:21;17.92;;;12.80;;
47812;SDS011;34221;45.296;9.516;2023-03-14T00:27:36;17.75;;;12.90;;
47812;SDS011;34221;45.296;9.516;2023-03-14T00:27:51;19.33;;;13.50;;
47812;SDS011;34221;45.296;9.516;2023-03-14T00:28:06;19.65;;;13.43;;
47812;SDS011;34221;45.296;9.516;2023-03-14T00:28:21;19.45;;;12.95;;
47812;SDS011;34221;45.296;9.516;2023-03-14T00:28:36;21.27;;;12.70;;
47812;SDS011;34221;45.296;9.516;2023-03-14T00:28:52;21.48;;;12.23;;
47812;SDS011;34221;45.296;9.516;2023-03-14T00:29:08;19.38;;;11.80;;
47812;SDS011;34221;45.296;9.516;2023-03-14T00:29:23;20.88;;;12.35;;
47812;SDS011;34221;45.296;9.516;2023-03-14T00:29:38;23.42;;;12.75;;
47812;SDS011;34221;45.296;9.516;2023-03-14T00:29:53;20.58;;;12.13;;
47812;SDS011;34221;45.296;9.516;2023-03-14T00:30:10;18.63;;;12.15;;
47812;SDS011;34221;45.296;9.516;2023-03-14T00:30:25;16.43;;;12.03;;
47812;SDS011;34221;45.296;9.516;2023-03-14T00:30:40;16.77;;;12.20;;
47812;SDS011;34221;45.296;9.516;2023-03-14T00:30:57;20.25;;;12.52;;
47812;SDS011;34221;45.296;9.516;2023-03-14T00:31:13;20.47;;;12.13;;
47812;SDS011;34221;45.296;9.516;2023-03-14T00:31:29;18.48;;;11.82;;
47812;SDS011;34221;45.296;9.516;2023-03-14T00:31:44;19.60;;;11.77;;
47812;SDS011;34221;45.296;9.516;2023-03-14T00:31:59;19.02;;;11.82;;
47812;SDS011;34221;45.296;9.516;2023-03-14T00:32:14;16.98;;;11.73;;
47812;SDS011;34221;45.296;9.516;2023-03-14T00:32:29;16.48;;;12.30;;
47812;SDS011;34221;45.296;9.516;2023-03-14T00:32:44;19.67;;;13.25;;
47812;SDS011;34221;45.296;9.516;2023-03-14T00:32:59;23.95;;;13.18;;
47812;SDS011;34221;45.296;9.516;2023-03-14T00:33:14;25.58;;;12.80;;
47812;SDS011;34221;45.296;9.516;2023-03-14T00:33:29;20.77;;;11.85;;
47812;SDS011;34221;45.296;9.516;2023-03-14T00:33:44;16.85;;;11.65;;
47812;SDS011;34221;45.296;9.516;2023-03-14T00:34:00;16.45;;;11.88;;
47812;SDS011;34221;45.296;9.516;2023-03-14T00:34:15;15.53;;;11.60;;
47812;SDS011;34221;45.296;9.516;2023-03-14T00:34:30;17.98;;;11.88;;
47812;SDS011;34221;45.296;9.516;2023-03-14T00:34:48;23.00;;;12.30;;
47812;SDS011;34221;45.296;9.516;2023-03-14T00:35:04;29.95;;;11.88;;
47812;SDS011;34221;45.296;9.516;2023-03-14T00:35:19;26.00;;;12.63;;
47812;SDS011;34221;45.296;9.516;2023-03-14T00:35:34;20.80;;;13.35;;
47812;SDS011;34221;45.296;9.516;2023-03-14T00:35:56;19.75;;;12.30;;
47812;SDS011;34221;45.296;9.516;2023-03-14T00:36:14;17.48;;;11.98;;
47812;SDS011;34221;45.296;9.516;2023-03-14T00:36:31;16.92;;;12.23;;
47812;SDS011;34221;45.296;9.516;2023-03-14T00:36:46;15.70;;;11.77;;
47812;SDS011;34221;45.296;9.516;2023-03-14T00:37:01;16.27;;;11.98;;
47812;SDS011;34221;45.296;9.516;2023-03-14T00:37:16;17.63;;;11.65;;
47812;SDS011;34221;45.296;9.516;2023-03-14T00:37:31;19.95;;;11.65;;
47812;SDS011;34221;45.296;9.516;2023-03-14T00:37:46;18.10;;;11.30;;
47812;SDS011;34221;45.296;9.516;2023-03-14T00:38:21;17.85;;;11.93;;
47812;SDS011;34221;45.296;9.516;2023-03-14T00:38:37;19.80;;;11.77;;
47812;SDS011;34221;45.296;9.516;2023-03-14T00:38:53;18.55;;;11.40;;
47812;SDS011;34221;45.296;9.516;2023-03-14T00:39:09;18.88;;;11.32;;
47812;SDS011;34221;45.296;9.516;2023-03-14T00:39:23;18.17;;;10.77;;
47812;SDS011;34221;45.296;9.516;2023-03-14T00:39:39;16.25;;;11.23;;
47812;SDS011;34221;45.296;9.516;2023-03-14T00:39:54;15.15;;;10.60;;
47812;SDS011;34221;45.296;9.516;2023-03-14T00:40:14;14.98;;;10.20;;
47812;SDS011;34221;45.296;9.516;2023-03-14T00:40:29;14.55;;;10.43;;
47812;SDS011;34221;45.296;9.516;2023-03-14T00:40:43;17.50;;;11.00;;
47812;SDS011;34221;45.296;9.516;2023-03-14T00:40:58;22.05;;;11.45;;
47812;SDS011;34221;45.296;9.516;2023-03-14T00:41:15;19.95;;;11.43;;
47812;SDS011;34221;45.296;9.516;2023-03-14T00:41:33;16.13;;;10.75;;
47812;SDS011;34221;45.296;9.516;2023-03-14T00:41:48;15.45;;;10.25;;
47812;SDS011;34221;45.296;9.516;2023-03-14T00:42:03;15.60;;;10.32;;
47812;SDS011;34221;45.296;9.516;2023-03-14T00:42:18;14.85;;;10.25;;
47812;SDS011;34221;45.296;9.516;2023-03-14T00:42:33;15.32;;;10.43;;
47812;SDS011;34221;45.296;9.516;2023-03-14T00:42:48;15.63;;;10.38;;
47812;SDS011;34221;45.296;9.516;2023-03-14T00:43:04;16.17;;;10.85;;
47812;SDS011;34221;45.296;9.516;2023-03-14T00:43:19;17.83;;;11.40;;
47812;SDS011;34221;45.296;9.516;2023-03-14T00:43:37;19.40;;;10.60;;
47812;SDS011;34221;45.296;9.516;2023-03-14T00:43:52;18.33;;;10.45;;
47812;SDS011;34221;45.296;9.516;2023-03-14T00:44:08;16.75;;;10.43;;
47812;SDS011;34221;45.296;9.516;2023-03-14T00:44:23;20.67;;;10.90;;
47812;SDS011;34221;45.296;9.516;2023-03-14T00:44:38;22.00;;;11.20;;
47812;SDS011;34221;45.296;9.516;2023-03-14T00:44:55;17.55;;;10.43;;
47812;SDS011;34221;45.296;9.516;2023-03-14T00:45:10;13.82;;;10.00;;
47812;SDS011;34221;45.296;9.516;2023-03-14T00:45:25;13.73;;;10.05;;
47812;SDS011;34221;45.296;9.516;2023-03-14T00:45:41;17.20;;;11.27;;
47812;SDS011;34221;45.296;9.516;2023-03-14T00:45:56;18.27;;;11.52;;
47812;SDS011;34221;45.296;9.516;2023-03-14T00:46:14;19.88;;;10.63;;
47812;SDS011;34221;45.296;9.516;2023-03-14T00:46:31;18.60;;;10.88;;
47812;SDS011;34221;45.296;9.516;2023-03-14T00:46:46;17.02;;;10.43;;
47812;SDS011;34221;45.296;9.516;2023-03-14T00:47:01;17.88;;;10.52;;
47812;SDS011;34221;45.296;9.516;2023-03-14T00:47:16;17.10;;;10.52;;
47812;SDS011;34221;45.296;9.516;2023-03-14T00:47:31;16.23;;;10.20;;
47812;SDS011;34221;45.296;9.516;2023-03-14T00:47:46;13.93;;;10.07;;
47812;SDS011;34221;45.296;9.516;2023-03-14T00:48:01;13.13;;;10.15;;
47812;SDS011;34221;45.296;9.516;2023-03-14T00:48:16;14.23;;;10.30;;
47812;SDS011;34221;45.296;9.516;2023-03-14T00:48:34;19.65;;;10.95;;
47812;SDS011;34221;45.296;9.516;2023-03-14T00:48:49;20.55;;;10.90;;
47812;SDS011;34221;45.296;9.516;2023-03-14T00:49:04;15.70;;;10.40;;
47812;SDS011;34221;45.296;9.516;2023-03-14T00:49:19;17.17;;;10.65;;
47812;SDS011;34221;45.296;9.516;2023-03-14T00:49:34;21.52;;;10.82;;
47812;SDS011;34221;45.296;9.516;2023-03-14T00:49:49;22.13;;;10.57;;
47812;SDS011;34221;45.296;9.516;2023-03-14T00:50:04;18.05;;;10.30;;
47812;SDS011;34221;45.296;9.516;2023-03-14T00:50:20;15.00;;;10.02;;
47812;SDS011;34221;45.296;9.516;2023-03-14T00:50:35;15.07;;;10.35;;
47812;SDS011;34221;45.296;9.516;2023-03-14T00:50:50;15.13;;;10.18;;
47812;SDS011;34221;45.296;9.516;2023-03-14T00:51:05;14.48;;;9.77;;
47812;SDS011;34221;45.296;9.516;2023-03-14T00:51:23;16.10;;;10.38;;
47812;SDS011;34221;45.296;9.516;2023-03-14T00:51:38;16.08;;;10.07;;
47812;SDS011;34221;45.296;9.516;2023-03-14T00:51:53;14.05;;;9.45;;
47812;SDS011;34221;45.296;9.516;2023-03-14T00:52:08;14.98;;;9.80;;
47812;SDS011;34221;45.296;9.516;2023-03-14T00:52:23;17.50;;;10.80;;
47812;SDS011;34221;45.296;9.516;2023-03-14T00:52:38;15.80;;;11.05;;
47812;SDS011;34221;45.296;9.516;2023-03-14T00:52:54;16.10;;;10.80;;
47812;SDS011;34221;45.296;9.516;2023-03-14T00:53:09;18.30;;;10.68;;
47812;SDS011;34221;45.296;9.516;2023-03-14T00:53:24;16.95;;;10.20;;
47812;SDS011;34221;45.296;9.516;2023-03-14T00:53:39;15.20;;;9.90;;
47812;SDS011;34221;45.296;9.516;2023-03-14T00:53:54;20.60;;;9.90;;
47812;SDS011;34221;45.296;9.516;2023-03-14T00:54:09;22.33;;;10.30;;
47812;SDS011;34221;45.296;9.516;2023-03-14T00:54:24;18.38;;;10.63;;
47812;SDS011;34221;45.296;9.516;2023-03-14T00:54:39;16.48;;;10.30;;
47812;SDS011;34221;45.296;9.516;2023-03-14T00:54:54;15.85;;;10.55;;
47812;SDS011;34221;45.296;9.516;2023-03-14T00:55:09;17.67;;;10.55;;
47812;SDS011;34221;45.296;9.516;2023-03-14T00:55:24;17.27;;;10.33;;
47812;SDS011;34221;45.296;9.516;2023-03-14T00:55:39;14.50;;;10.32;;
47812;SDS011;34221;45.296;9.516;2023-03-14T00:55:56;14.07;;;9.52;;
47812;SDS011;34221;45.296;9.516;2023-03-14T00:56:17;15.18;;;9.20;;
47812;SDS011;34221;45.296;9.516;2023-03-14T00:56:32;16.50;;;9.63;;
47812;SDS011;34221;45.296;9.516;2023-03-14T00:56:47;15.93;;;9.70;;
47812;SDS011;34221;45.296;9.516;2023-03-14T00:57:02;15.68;;;9.65;;
47812;SDS011;34221;45.296;9.516;2023-03-14T00:57:17;15.90;;;9.82;;
47812;SDS011;34221;45.296;9.516;2023-03-14T00:57:32;14.43;;;9.50;;
47812;SDS011;34221;45.296;9.516;2023-03-14T00:57:47;17.23;;;9.77;;
47812;SDS011;34221;45.296;9.516;2023-03-14T00:58:02;18.25;;;10.45;;
47812;SDS011;34221;45.296;9.516;2023-03-14T00:58:17;14.82;;;9.95;;
47812;SDS011;34221;45.296;9.516;2023-03-14T00:58:32;13.57;;;9.85;;
47812;SDS011;34221;45.296;9.516;2023-03-14T00:58:47;13.98;;;9.93;;
47812;SDS011;34221;45.296;9.516;2023-03-14T00:59:02;14.98;;;10.13;;
47812;SDS011;34221;45.296;9.516;2023-03-14T00:59:17;21.60;;;10.75;;
47812;SDS011;34221;45.296;9.516;2023-03-14T00:59:32;20.30;;;10.23;;
47812;SDS011;34221;45.296;9.516;2023-03-14T00:59:47;17.20;;;10.52;;
47812;SDS011;34221;45.296;9.516;2023-03-14T01:00:03;17.10;;;10.10;;
47812;SDS011;34221;45.296;9.516;2023-03-14T01:00:20;16.42;;;9.60;;
47812;SDS011;34221;45.296;9.516;2023-03-14T01:00:35;19.08;;;9.52;;
47812;SDS011;34221;45.296;9.516;2023-03-14T01:00:51;16.90;;;9.73;;
47812;SDS011;34221;45.296;9.516;2023-03-14T01:01:10;16.17;;;9.73;;
47812;SDS011;34221;45.296;9.516;2023-03-14T01:01:33;14.13;;;9.60;;
47812;SDS011;34221;45.296;9.516;2023-03-14T01:01:48;15.93;;;9.68;;
47812;SDS011;34221;45.296;9.516;2023-03-14T01:02:24;17.70;;;10.30;;
47812;SDS011;34221;45.296;9.516;2023-03-14T01:02:39;14.60;;;9.32;;
47812;SDS011;34221;45.296;9.516;2023-03-14T01:02:54;15.55;;;9.80;;
47812;SDS011;34221;45.296;9.516;2023-03-14T01:03:11;15.97;;;10.00;;
47812;SDS011;34221;45.296;9.516;2023-03-14T01:03:28;16.43;;;10.20;;
47812;SDS011;34221;45.296;9.516;2023-03-14T01:03:42;16.87;;;10.40;;
47812;SDS011;34221;45.296;9.516;2023-03-14T01:03:57;28.10;;;10.02;;
47812;SDS011;34221;45.296;9.516;2023-03-14T01:04:12;26.50;;;9.27;;
47812;SDS011;34221;45.296;9.516;2023-03-14T01:04:27;13.05;;;9.02;;
47812;SDS011;34221;45.296;9.516;2023-03-14T01:04:44;13.95;;;10.02;;
47812;SDS011;34221;45.296;9.516;2023-03-14T01:05:03;17.30;;;10.38;;
47812;SDS011;34221;45.296;9.516;2023-03-14T01:05:18;15.43;;;10.15;;
47812;SDS011;34221;45.296;9.516;2023-03-14T01:05:33;14.70;;;9.90;;
47812;SDS011;34221;45.296;9.516;2023-03-14T01:05:49;15.25;;;9.65;;
47812;SDS011;34221;45.296;9.516;2023-03-14T01:06:08;14.40;;;9.90;;
47812;SDS011;34221;45.296;9.516;2023-03-14T01:06:32;14.93;;;9.85;;
47812;SDS011;34221;45.296;9.516;2023-03-14T01:06:47;15.05;;;10.10;;
47812;SDS011;34221;45.296;9.516;2023-03-14T01:07:02;12.50;;;9.57;;
47812;SDS011;34221;45.296;9.516;2023-03-14T01:07:17;13.75;;;9.27;;
47812;SDS011;34221;45.296;9.516;2023-03-14T01:07:32;16.33;;;9.10;;
47812;SDS011;34221;45.296;9.516;2023-03-14T01:07:47;15.68;;;9.27;;
47812;SDS011;34221;45.296;9.516;2023-03-14T01:08:03;16.77;;;10.10;;
47812;SDS011;34221;45.296;9.516;2023-03-14T01:08:18;16.45;;;10.30;;
47812;SDS011;34221;45.296;9.516;2023-03-14T01:08:33;16.02;;;10.18;;
47812;SDS011;34221;45.296;9.516;2023-03-14T01:08:49;16.33;;;9.82;;
47812;SDS011;34221;45.296;9.516;2023-03-14T01:09:04;14.90;;;9.75;;
47812;SDS011;34221;45.296;9.516;2023-03-14T01:09:19;15.55;;;10.18;;
47812;SDS011;34221;45.296;9.516;2023-03-14T01:09:36;16.70;;;10.13;;
47812;SDS011;34221;45.296;9.516;2023-03-14T01:09:51;18.13;;;10.32;;
47812;SDS011;34221;45.296;9.516;2023-03-14T01:10:07;18.58;;;10.48;;
47812;SDS011;34221;45.296;9.516;2023-03-14T01:10:23;18.85;;;10.63;;
47812;SDS011;34221;45.296;9.516;2023-03-14T01:10:39;18.80;;;10.63;;
47812;SDS011;34221;45.296;9.516;2023-03-14T01:10:55;17.33;;;10.70;;
47812;SDS011;34221;45.296;9.516;2023-03-14T01:11:14;16.50;;;10.10;;
47812;SDS011;34221;45.296;9.516;2023-03-14T01:11:54;15.20;;;10.27;;
47812;SDS011;34221;45.296;9.516;2023-03-14T01:12:09;15.18;;;10.52;;
47812;SDS011;34221;45.296;9.516;2023-03-14T01:12:24;14.10;;;10.05;;
47812;SDS011;34221;45.296;9.516;2023-03-14T01:12:39;14.23;;;9.90;;
47812;SDS011;34221;45.296;9.516;2023-03-14T01:12:54;16.83;;;9.90;;
47812;SDS011;34221;45.296;9.516;2023-03-14T01:13:09;16.27;;;9.80;;
47812;SDS011;34221;45.296;9.516;2023-03-14T01:13:24;12.75;;;9.43;;
47812;SDS011;34221;45.296;9.516;2023-03-14T01:13:39;13.88;;;10.05;;
47812;SDS011;34221;45.296;9.516;2023-03-14T01:13:54;16.52;;;10.93;;
47812;SDS011;34221;45.296;9.516;2023-03-14T01:14:10;15.30;;;10.27;;
47812;SDS011;34221;45.296;9.516;2023-03-14T01:14:25;16.52;;;9.30;;
47812;SDS011;34221;45.296;9.516;2023-03-14T01:14:40;16.00;;;9.82;;
47812;SDS011;34221;45.296;9.516;2023-03-14T01:14:55;12.65;;;10.20;;
47812;SDS011;34221;45.296;9.516;2023-03-14T01:15:11;13.70;;;10.18;;
47812;SDS011;34221;45.296;9.516;2023-03-14T01:15:26;14.27;;;9.73;;
47812;SDS011;34221;45.296;9.516;2023-03-14T01:15:41;13.82;;;9.57;;
47812;SDS011;34221;45.296;9.516;2023-03-14T01:16:02;17.00;;;10.20;;
47812;SDS011;34221;45.296;9.516;2023-03-14T01:16:20;15.57;;;9.60;;
47812;SDS011;34221;45.296;9.516;2023-03-14T01:16:37;14.95;;;9.98;;
47812;SDS011;34221;45.296;9.516;2023-03-14T01:16:52;15.18;;;10.00;;
47812;SDS011;34221;45.296;9.516;2023-03-14T01:17:08;17.85;;;10.25;;
47812;SDS011;34221;45.296;9.516;2023-03-14T01:17:23;17.45;;;10.23;;
47812;SDS011;34221;45.296;9.516;2023-03-14T01:17:38;14.43;;;10.07;;
47812;SDS011;34221;45.296;9.516;2023-03-14T01:17:53;13.57;;;9.77;;
47812;SDS011;34221;45.296;9.516;2023-03-14T01:18:08;14.10;;;9.50;;
47812;SDS011;34221;45.296;9.516;2023-03-14T01:18:23;14.00;;;9.98;;
47812;SDS011;34221;45.296;9.516;2023-03-14T01:18:39;13.95;;;9.95;;
47812;SDS011;34221;45.296;9.516;2023-03-14T01:18:57;12.63;;;9.00;;
47812;SDS011;34221;45.296;9.516;2023-03-14T01:19:13;12.48;;;8.70;;
47812;SDS011;34221;45.296;9.516;2023-03-14T01:19:28;13.05;;;9.00;;
47812;SDS011;34221;45.296;9.516;2023-03-14T01:19:43;14.52;;;9.88;;
47812;SDS011;34221;45.296;9.516;2023-03-14T01:19:58;16.80;;;9.98;;
47812;SDS011;34221;45.296;9.516;2023-03-14T01:20:14;14.63;;;9.20;;
47812;SDS011;34221;45.296;9.516;2023-03-14T01:20:31;13.50;;;9.73;;
47812;SDS011;34221;45.296;9.516;2023-03-14T01:20:46;14.90;;;10.20;;
47812;SDS011;34221;45.296;9.516;2023-03-14T01:21:09;15.43;;;9.75;;
47812;SDS011;34221;45.296;9.516;2023-03-14T01:21:39;17.15;;;9.68;;
47812;SDS011;34221;45.296;9.516;2023-03-14T01:21:54;14.65;;;10.15;;
47812;SDS011;34221;45.296;9.516;2023-03-14T01:22:09;14.25;;;10.00;;
47812;SDS011;34221;45.296;9.516;2023-03-14T01:22:25;12.98;;;9.40;;
47812;SDS011;34221;45.296;9.516;2023-03-14T01:22:41;14.00;;;9.65;;
47812;SDS011;34221;45.296;9.516;2023-03-14T01:22:57;15.43;;;9.85;;
47812;SDS011;34221;45.296;9.516;2023-03-14T01:23:12;16.20;;;10.13;;
47812;SDS011;34221;45.296;9.516;2023-03-14T01:23:27;15.48;;;10.20;;
47812;SDS011;34221;45.296;9.516;2023-03-14T01:23:43;15.10;;;10.00;;
47812;SDS011;34221;45.296;9.516;2023-03-14T01:24:00;16.45;;;9.85;;
47812;SDS011;34221;45.296;9.516;2023-03-14T01:24:17;16.33;;;10.00;;
47812;SDS011;34221;45.296;9.516;2023-03-14T01:24:32;18.05;;;10.38;;
47812;SDS011;34221;45.296;9.516;2023-03-14T01:24:47;16.60;;;9.90;;
47812;SDS011;34221;45.296;9.516;2023-03-14T01:25:02;14.20;;;9.85;;
47812;SDS011;34221;45.296;9.516;2023-03-14T01:25:17;17.53;;;10.33;;
47812;SDS011;34221;45.296;9.516;2023-03-14T01:25:33;18.70;;;9.88;;
47812;SDS011;34221;45.296;9.516;2023-03-14T01:25:47;17.73;;;9.63;;
47812;SDS011;34221;45.296;9.516;2023-03-14T01:26:03;15.77;;;9.38;;
47812;SDS011;34221;45.296;9.516;2023-03-14T01:26:19;14.60;;;9.30;;
47812;SDS011;34221;45.296;9.516;2023-03-14T01:26:36;17.38;;;10.40;;
47812;SDS011;34221;45.296;9.516;2023-03-14T01:26:53;19.38;;;10.60;;
47812;SDS011;34221;45.296;9.516;2023-03-14T01:27:08;20.58;;;10.15;;
47812;SDS011;34221;45.296;9.516;2023-03-14T01:27:23;18.33;;;10.10;;
47812;SDS011;34221;45.296;9.516;2023-03-14T01:27:38;13.95;;;9.88;;
47812;SDS011;34221;45.296;9.516;2023-03-14T01:27:53;13.60;;;9.75;;
47812;SDS011;34221;45.296;9.516;2023-03-14T01:28:08;14.73;;;9.57;;
47812;SDS011;34221;45.296;9.516;2023-03-14T01:28:23;15.45;;;9.50;;
47812;SDS011;34221;45.296;9.516;2023-03-14T01:28:38;14.20;;;9.52;;
47812;SDS011;34221;45.296;9.516;2023-03-14T01:28:54;13.70;;;9.77;;
47812;SDS011;34221;45.296;9.516;2023-03-14T01:29:10;15.20;;;10.10;;
47812;SDS011;34221;45.296;9.516;2023-03-14T01:29:27;15.80;;;10.13;;
47812;SDS011;34221;45.296;9.516;2023-03-14T01:29:42;15.23;;;10.05;;
47812;SDS011;34221;45.296;9.516;2023-03-14T01:29:56;15.82;;;10.45;;
47812;SDS011;34221;45.296;9.516;2023-03-14T01:30:12;17.33;;;10.18;;
47812;SDS011;34221;45.296;9.516;2023-03-14T01:30:27;16.50;;;9.75;;
47812;SDS011;34221;45.296;9.516;2023-03-14T01:30:42;15.02;;;10.13;;
47812;SDS011;34221;45.296;9.516;2023-03-14T01:31:01;15.07;;;9.85;;
47812;SDS011;34221;45.296;9.516;2023-03-14T01:31:21;15.65;;;9.52;;
47812;SDS011;34221;45.296;9.516;2023-03-14T01:31:38;14.23;;;9.38;;
47812;SDS011;34221;45.296;9.516;2023-03-14T01:31:53;13.90;;;9.45;;
47812;SDS011;34221;45.296;9.516;2023-03-14T01:32:08;16.17;;;9.93;;
47812;SDS011;34221;45.296;9.516;2023-03-14T01:32:23;19.45;;;9.90;;
47812;SDS011;34221;45.296;9.516;2023-03-14T01:32:40;18.35;;;10.32;;
47812;SDS011;34221;45.296;9.516;2023-03-14T01:32:55;14.45;;;9.82;;
47812;SDS011;34221;45.296;9.516;2023-03-14T01:33:10;13.55;;;9.48;;
47812;SDS011;34221;45.296;9.516;2023-03-14T01:33:27;14.02;;;9.65;;
47812;SDS011;34221;45.296;9.516;2023-03-14T01:33:42;14.90;;;9.52;;
47812;SDS011;34221;45.296;9.516;2023-03-14T01:33:58;17.48;;;9.77;;